sensor_id;sensor_type;location;lat;lon;timestamp;P1;durP1;ratioP1;P2;durP2;ratioP2
75647;SDS011;66269;51.466;7.260;2023-03-14T00:00:14;3.92;;;1.27;;
75647;SDS011;66269;51.466;7.260;2023-03-14T00:02:40;3.88;;;1.40;;
75647;SDS011;66269;51.466;7.260;2023-03-14T00:05:06;3.58;;;1.30;;
75647;SDS011;66269;51.466;7.260;2023-03-14T00:07:34;3.90;;;1.40;;
75647;SDS011;66269;51.466;7.260;2023-03-14T00:10:04;3.60;;;1.40;;
75647;SDS011;66269;51.466;7.260;2023-03-14T00:12:32;3.45;;;1.50;;
75647;SDS011;66269;51.466;7.260;2023-03-14T00:14:57;3.10;;;1.33;;
75647;SDS011;66269;51.466;7.260;2023-03-14T00:17:25;3.75;;;1.35;;
75647;SDS011;66269;51.466;7.260;2023-03-14T00:19:51;3.42;;;1.25;;
75647;SDS011;66269;51.466;7.260;2023-03-14T00:22:18;3.25;;;1.30;;
75647;SDS011;66269;51.466;7.260;2023-03-14T00:24:44;3.63;;;1.30;;
75647;SDS011;66269;51.466;7.260;2023-03-14T00:27:10;3.60;;;1.33;;
75647;SDS011;66269;51.466;7.260;2023-03-14T00:29:35;3.38;;;1.30;;
75647;SDS011;66269;51.466;7.260;2023-03-14T00:32:01;3.38;;;1.25;;
75647;SDS011;66269;51.466;7.260;2023-03-14T00:34:30;4.68;;;1.65;;
75647;SDS011;66269;51.466;7.260;2023-03-14T00:36:56;4.18;;;1.40;;
75647;SDS011;66269;51.466;7.260;2023-03-14T00:39:22;4.45;;;1.30;;
75647;SDS011;66269;51.466;7.260;2023-03-14T00:41:47;4.45;;;1.30;;
75647;SDS011;66269;51.466;7.260;2023-03-14T00:44:13;2.92;;;1.05;;
75647;SDS011;66269;51.466;7.260;2023-03-14T00:46:38;4.03;;;1.50;;
75647;SDS011;66269;51.466;7.260;2023-03-14T00:49:04;3.05;;;1.20;;
75647;SDS011;66269;51.466;7.260;2023-03-14T00:51:29;3.13;;;1.20;;
75647;SDS011;66269;51.466;7.260;2023-03-14T00:53:55;4.85;;;1.60;;
75647;SDS011;66269;51.466;7.260;2023-03-14T00:56:20;4.45;;;1.60;;
75647;SDS011;66269;51.466;7.260;2023-03-14T00:58:46;3.53;;;1.27;;
75647;SDS011;66269;51.466;7.260;2023-03-14T01:01:16;3.60;;;1.50;;
75647;SDS011;66269;51.466;7.260;2023-03-14T01:03:43;3.95;;;1.42;;
75647;SDS011;66269;51.466;7.260;2023-03-14T01:06:16;3.10;;;1.20;;
75647;SDS011;66269;51.466;7.260;2023-03-14T01:08:44;3.90;;;1.40;;
75647;SDS011;66269;51.466;7.260;2023-03-14T01:11:11;4.40;;;1.40;;
75647;SDS011;66269;51.466;7.260;2023-03-14T01:13:39;5.32;;;1.38;;
75647;SDS011;66269;51.466;7.260;2023-03-14T01:16:06;3.35;;;1.20;;
75647;SDS011;66269;51.466;7.260;2023-03-14T01:18:33;4.85;;;1.50;;
75647;SDS011;66269;51.466;7.260;2023-03-14T01:21:03;3.63;;;1.50;;
75647;SDS011;66269;51.466;7.260;2023-03-14T01:23:36;3.53;;;1.33;;
75647;SDS011;66269;51.466;7.260;2023-03-14T01:26:02;3.90;;;1.60;;
75647;SDS011;66269;51.466;7.260;2023-03-14T01:28:28;3.70;;;1.42;;
75647;SDS011;66269;51.466;7.260;2023-03-14T01:30:53;3.75;;;1.33;;
75647;SDS011;66269;51.466;7.260;2023-03-14T01:33:19;4.60;;;1.35;;
75647;SDS011;66269;51.466;7.260;2023-03-14T01:35:44;3.88;;;1.40;;
75647;SDS011;66269;51.466;7.260;2023-03-14T01:38:10;3.65;;;1.40;;
75647;SDS011;66269;51.466;7.260;2023-03-14T01:40:41;3.65;;;1.40;;
75647;SDS011;66269;51.466;7.260;2023-03-14T01:43:15;4.28;;;1.70;;
75647;SDS011;66269;51.466;7.260;2023-03-14T01:48:35;3.65;;;1.30;;
75647;SDS011;66269;51.466;7.260;2023-03-14T01:51:06;3.70;;;1.38;;
75647;SDS011;66269;51.466;7.260;2023-03-14T01:53:35;3.63;;;1.45;;
75647;SDS011;66269;51.466;7.260;2023-03-14T01:56:03;4.60;;;1.50;;
75647;SDS011;66269;51.466;7.260;2023-03-14T01:58:29;3.95;;;1.77;;
75647;SDS011;66269;51.466;7.260;2023-03-14T02:00:59;4.95;;;1.60;;
75647;SDS011;66269;51.466;7.260;2023-03-14T02:03:26;3.90;;;1.27;;
75647;SDS011;66269;51.466;7.260;2023-03-14T02:05:54;3.03;;;1.27;;
75647;SDS011;66269;51.466;7.260;2023-03-14T02:08:24;3.75;;;1.30;;
75647;SDS011;66269;51.466;7.260;2023-03-14T02:10:52;4.00;;;1.40;;
75647;SDS011;66269;51.466;7.260;2023-03-14T02:13:18;3.58;;;1.42;;
75647;SDS011;66269;51.466;7.260;2023-03-14T02:15:46;3.58;;;1.30;;
75647;SDS011;66269;51.466;7.260;2023-03-14T02:18:12;4.07;;;1.50;;
75647;SDS011;66269;51.466;7.260;2023-03-14T02:26:19;3.30;;;1.33;;
75647;SDS011;66269;51.466;7.260;2023-03-14T02:28:50;3.90;;;1.50;;
75647;SDS011;66269;51.466;7.260;2023-03-14T02:31:18;3.55;;;1.30;;
75647;SDS011;66269;51.466;7.260;2023-03-14T02:33:45;5.13;;;1.60;;
75647;SDS011;66269;51.466;7.260;2023-03-14T02:36:11;3.80;;;1.27;;
75647;SDS011;66269;51.466;7.260;2023-03-14T02:41:08;4.45;;;1.33;;
75647;SDS011;66269;51.466;7.260;2023-03-14T02:43:34;3.67;;;1.40;;
75647;SDS011;66269;51.466;7.260;2023-03-14T02:46:01;4.15;;;1.42;;
75647;SDS011;66269;51.466;7.260;2023-03-14T02:48:42;4.05;;;1.40;;
75647;SDS011;66269;51.466;7.260;2023-03-14T02:51:11;3.78;;;1.60;;
75647;SDS011;66269;51.466;7.260;2023-03-14T02:53:38;3.92;;;1.27;;
75647;SDS011;66269;51.466;7.260;2023-03-14T02:56:06;4.78;;;1.42;;
75647;SDS011;66269;51.466;7.260;2023-03-14T02:58:32;4.60;;;1.50;;
75647;SDS011;66269;51.466;7.260;2023-03-14T03:00:58;3.45;;;1.17;;
75647;SDS011;66269;51.466;7.260;2023-03-14T03:03:24;3.88;;;1.50;;
75647;SDS011;66269;51.466;7.260;2023-03-14T03:05:50;3.95;;;1.40;;
75647;SDS011;66269;51.466;7.260;2023-03-14T03:08:17;3.83;;;1.30;;
75647;SDS011;66269;51.466;7.260;2023-03-14T03:10:43;4.05;;;1.52;;
75647;SDS011;66269;51.466;7.260;2023-03-14T03:13:09;4.68;;;1.63;;
75647;SDS011;66269;51.466;7.260;2023-03-14T03:15:34;4.07;;;1.40;;
75647;SDS011;66269;51.466;7.260;2023-03-14T03:18:00;4.13;;;1.40;;
75647;SDS011;66269;51.466;7.260;2023-03-14T03:20:25;4.00;;;1.45;;
75647;SDS011;66269;51.466;7.260;2023-03-14T03:22:51;4.70;;;1.50;;
75647;SDS011;66269;51.466;7.260;2023-03-14T03:25:16;3.67;;;1.40;;
75647;SDS011;66269;51.466;7.260;2023-03-14T03:27:42;4.22;;;1.70;;
75647;SDS011;66269;51.466;7.260;2023-03-14T03:30:08;3.20;;;1.30;;
75647;SDS011;66269;51.466;7.260;2023-03-14T03:32:34;5.20;;;1.40;;
75647;SDS011;66269;51.466;7.260;2023-03-14T03:35:02;4.00;;;1.50;;
75647;SDS011;66269;51.466;7.260;2023-03-14T03:37:30;4.15;;;1.50;;
75647;SDS011;66269;51.466;7.260;2023-03-14T03:39:56;5.70;;;1.65;;
75647;SDS011;66269;51.466;7.260;2023-03-14T03:42:21;3.88;;;1.40;;
75647;SDS011;66269;51.466;7.260;2023-03-14T03:44:47;4.15;;;1.27;;
75647;SDS011;66269;51.466;7.260;2023-03-14T03:47:13;4.03;;;1.35;;
75647;SDS011;66269;51.466;7.260;2023-03-14T03:49:38;4.03;;;1.70;;
75647;SDS011;66269;51.466;7.260;2023-03-14T03:52:04;3.80;;;1.40;;
75647;SDS011;66269;51.466;7.260;2023-03-14T03:54:29;3.60;;;1.40;;
75647;SDS011;66269;51.466;7.260;2023-03-14T03:56:55;3.35;;;1.30;;
75647;SDS011;66269;51.466;7.260;2023-03-14T03:59:21;3.92;;;1.35;;
75647;SDS011;66269;51.466;7.260;2023-03-14T04:01:46;4.20;;;1.63;;
75647;SDS011;66269;51.466;7.260;2023-03-14T04:04:13;4.03;;;1.48;;
75647;SDS011;66269;51.466;7.260;2023-03-14T04:06:38;4.25;;;1.30;;
75647;SDS011;66269;51.466;7.260;2023-03-14T04:09:05;4.30;;;1.52;;
75647;SDS011;66269;51.466;7.260;2023-03-14T04:11:30;3.70;;;1.38;;
75647;SDS011;66269;51.466;7.260;2023-03-14T04:13:56;4.00;;;1.40;;
75647;SDS011;66269;51.466;7.260;2023-03-14T04:16:23;3.10;;;1.25;;
75647;SDS011;66269;51.466;7.260;2023-03-14T04:18:49;3.58;;;1.30;;
75647;SDS011;66269;51.466;7.260;2023-03-14T04:21:15;3.33;;;1.25;;
75647;SDS011;66269;51.466;7.260;2023-03-14T04:23:41;3.97;;;1.55;;
75647;SDS011;66269;51.466;7.260;2023-03-14T04:26:07;4.50;;;1.20;;
75647;SDS011;66269;51.466;7.260;2023-03-14T04:28:32;3.90;;;1.30;;
75647;SDS011;66269;51.466;7.260;2023-03-14T04:31:06;3.33;;;1.15;;
75647;SDS011;66269;51.466;7.260;2023-03-14T04:33:32;4.28;;;1.42;;
75647;SDS011;66269;51.466;7.260;2023-03-14T04:35:58;4.55;;;1.50;;
75647;SDS011;66269;51.466;7.260;2023-03-14T04:38:23;3.25;;;1.30;;
75647;SDS011;66269;51.466;7.260;2023-03-14T04:40:49;5.55;;;1.50;;
75647;SDS011;66269;51.466;7.260;2023-03-14T04:43:14;3.38;;;1.48;;
75647;SDS011;66269;51.466;7.260;2023-03-14T04:45:43;2.70;;;1.10;;
75647;SDS011;66269;51.466;7.260;2023-03-14T04:48:08;4.10;;;1.50;;
75647;SDS011;66269;51.466;7.260;2023-03-14T04:50:34;4.50;;;1.33;;
75647;SDS011;66269;51.466;7.260;2023-03-14T04:53:00;4.10;;;1.55;;
75647;SDS011;66269;51.466;7.260;2023-03-14T04:55:26;4.60;;;1.40;;
75647;SDS011;66269;51.466;7.260;2023-03-14T04:57:51;4.60;;;1.60;;
75647;SDS011;66269;51.466;7.260;2023-03-14T05:00:17;3.75;;;1.25;;
75647;SDS011;66269;51.466;7.260;2023-03-14T05:02:43;4.15;;;1.70;;
75647;SDS011;66269;51.466;7.260;2023-03-14T05:05:09;3.78;;;1.50;;
75647;SDS011;66269;51.466;7.260;2023-03-14T05:07:34;3.83;;;1.23;;
75647;SDS011;66269;51.466;7.260;2023-03-14T05:10:00;3.85;;;1.30;;
75647;SDS011;66269;51.466;7.260;2023-03-14T05:12:25;3.63;;;1.40;;
75647;SDS011;66269;51.466;7.260;2023-03-14T05:14:51;3.65;;;1.35;;
75647;SDS011;66269;51.466;7.260;2023-03-14T05:17:16;4.97;;;1.75;;
75647;SDS011;66269;51.466;7.260;2023-03-14T05:19:43;4.53;;;1.73;;
75647;SDS011;66269;51.466;7.260;2023-03-14T05:22:09;4.35;;;1.40;;
75647;SDS011;66269;51.466;7.260;2023-03-14T05:24:35;4.05;;;1.30;;
75647;SDS011;66269;51.466;7.260;2023-03-14T05:27:01;4.65;;;1.70;;
75647;SDS011;66269;51.466;7.260;2023-03-14T05:29:28;3.65;;;1.33;;
75647;SDS011;66269;51.466;7.260;2023-03-14T05:31:53;4.20;;;1.50;;
75647;SDS011;66269;51.466;7.260;2023-03-14T05:34:19;3.33;;;1.17;;
75647;SDS011;66269;51.466;7.260;2023-03-14T05:36:44;3.67;;;1.10;;
75647;SDS011;66269;51.466;7.260;2023-03-14T05:39:10;3.35;;;1.30;;
75647;SDS011;66269;51.466;7.260;2023-03-14T05:41:35;4.90;;;1.40;;
75647;SDS011;66269;51.466;7.260;2023-03-14T05:44:01;4.45;;;1.60;;
75647;SDS011;66269;51.466;7.260;2023-03-14T05:46:27;2.92;;;1.20;;
75647;SDS011;66269;51.466;7.260;2023-03-14T05:48:52;4.30;;;1.40;;
75647;SDS011;66269;51.466;7.260;2023-03-14T05:51:18;4.47;;;1.42;;
75647;SDS011;66269;51.466;7.260;2023-03-14T05:53:43;4.18;;;1.30;;
75647;SDS011;66269;51.466;7.260;2023-03-14T05:56:09;4.45;;;1.50;;
75647;SDS011;66269;51.466;7.260;2023-03-14T05:58:34;3.97;;;1.65;;
75647;SDS011;66269;51.466;7.260;2023-03-14T06:01:04;3.83;;;1.30;;
75647;SDS011;66269;51.466;7.260;2023-03-14T06:03:30;3.83;;;1.20;;
75647;SDS011;66269;51.466;7.260;2023-03-14T06:05:56;5.07;;;1.60;;
75647;SDS011;66269;51.466;7.260;2023-03-14T06:08:22;4.65;;;1.38;;
75647;SDS011;66269;51.466;7.260;2023-03-14T06:10:48;4.20;;;1.38;;
75647;SDS011;66269;51.466;7.260;2023-03-14T06:13:13;3.55;;;1.38;;
75647;SDS011;66269;51.466;7.260;2023-03-14T06:15:40;3.72;;;1.25;;
75647;SDS011;66269;51.466;7.260;2023-03-14T06:18:06;3.03;;;1.20;;
75647;SDS011;66269;51.466;7.260;2023-03-14T06:20:32;3.40;;;1.30;;
75647;SDS011;66269;51.466;7.260;2023-03-14T06:22:58;3.13;;;1.10;;
75647;SDS011;66269;51.466;7.260;2023-03-14T06:25:23;3.67;;;1.20;;
75647;SDS011;66269;51.466;7.260;2023-03-14T06:27:49;4.05;;;1.17;;
75647;SDS011;66269;51.466;7.260;2023-03-14T06:30:15;3.70;;;1.30;;
75647;SDS011;66269;51.466;7.260;2023-03-14T06:32:41;3.10;;;1.20;;
75647;SDS011;66269;51.466;7.260;2023-03-14T06:35:07;2.63;;;1.15;;
75647;SDS011;66269;51.466;7.260;2023-03-14T06:37:33;3.85;;;1.00;;
75647;SDS011;66269;51.466;7.260;2023-03-14T06:39:59;2.53;;;1.30;;
75647;SDS011;66269;51.466;7.260;2023-03-14T06:42:25;2.80;;;0.90;;
75647;SDS011;66269;51.466;7.260;2023-03-14T06:44:50;3.35;;;1.25;;
75647;SDS011;66269;51.466;7.260;2023-03-14T06:47:16;2.90;;;1.20;;
75647;SDS011;66269;51.466;7.260;2023-03-14T06:49:42;3.63;;;1.35;;
75647;SDS011;66269;51.466;7.260;2023-03-14T06:52:07;3.72;;;1.20;;
75647;SDS011;66269;51.466;7.260;2023-03-14T06:54:33;2.75;;;1.10;;
75647;SDS011;66269;51.466;7.260;2023-03-14T06:56:58;2.78;;;1.10;;
75647;SDS011;66269;51.466;7.260;2023-03-14T06:59:24;2.47;;;0.90;;
75647;SDS011;66269;51.466;7.260;2023-03-14T07:01:49;3.28;;;1.02;;
75647;SDS011;66269;51.466;7.260;2023-03-14T07:04:16;1.85;;;1.00;;
75647;SDS011;66269;51.466;7.260;2023-03-14T07:06:42;3.45;;;1.23;;
75647;SDS011;66269;51.466;7.260;2023-03-14T07:09:10;2.78;;;1.00;;
75647;SDS011;66269;51.466;7.260;2023-03-14T07:11:36;3.15;;;1.17;;
75647;SDS011;66269;51.466;7.260;2023-03-14T07:14:02;2.58;;;1.00;;
75647;SDS011;66269;51.466;7.260;2023-03-14T07:16:28;2.92;;;1.00;;
75647;SDS011;66269;51.466;7.260;2023-03-14T07:18:56;1.92;;;0.82;;
75647;SDS011;66269;51.466;7.260;2023-03-14T07:21:22;4.85;;;1.10;;
75647;SDS011;66269;51.466;7.260;2023-03-14T07:23:47;3.05;;;1.05;;
75647;SDS011;66269;51.466;7.260;2023-03-14T07:26:13;3.47;;;1.10;;
75647;SDS011;66269;51.466;7.260;2023-03-14T07:28:39;2.95;;;1.02;;
75647;SDS011;66269;51.466;7.260;2023-03-14T07:31:04;3.50;;;0.90;;
75647;SDS011;66269;51.466;7.260;2023-03-14T07:33:30;2.42;;;1.00;;
75647;SDS011;66269;51.466;7.260;2023-03-14T07:35:56;2.20;;;0.80;;
75647;SDS011;66269;51.466;7.260;2023-03-14T07:38:21;4.15;;;1.05;;
75647;SDS011;66269;51.466;7.260;2023-03-14T07:40:47;1.90;;;0.85;;
75647;SDS011;66269;51.466;7.260;2023-03-14T07:43:12;2.22;;;0.90;;
75647;SDS011;66269;51.466;7.260;2023-03-14T07:45:38;3.10;;;1.20;;
75647;SDS011;66269;51.466;7.260;2023-03-14T07:48:04;1.65;;;0.90;;
75647;SDS011;66269;51.466;7.260;2023-03-14T07:50:29;2.05;;;0.90;;
75647;SDS011;66269;51.466;7.260;2023-03-14T07:52:55;1.88;;;0.93;;
75647;SDS011;66269;51.466;7.260;2023-03-14T07:55:20;2.63;;;0.90;;
75647;SDS011;66269;51.466;7.260;2023-03-14T07:57:46;1.63;;;0.93;;
75647;SDS011;66269;51.466;7.260;2023-03-14T08:00:12;1.50;;;0.88;;
75647;SDS011;66269;51.466;7.260;2023-03-14T08:02:41;2.25;;;1.00;;
75647;SDS011;66269;51.466;7.260;2023-03-14T08:05:07;1.98;;;0.90;;
75647;SDS011;66269;51.466;7.260;2023-03-14T08:07:33;2.03;;;1.00;;
75647;SDS011;66269;51.466;7.260;2023-03-14T08:09:59;2.53;;;0.98;;
75647;SDS011;66269;51.466;7.260;2023-03-14T08:12:24;3.15;;;0.90;;
75647;SDS011;66269;51.466;7.260;2023-03-14T08:14:50;1.17;;;0.80;;
75647;SDS011;66269;51.466;7.260;2023-03-14T08:17:15;1.83;;;0.90;;
75647;SDS011;66269;51.466;7.260;2023-03-14T08:19:41;2.10;;;0.90;;
75647;SDS011;66269;51.466;7.260;2023-03-14T08:22:07;1.60;;;0.80;;
75647;SDS011;66269;51.466;7.260;2023-03-14T08:24:33;1.80;;;0.65;;
75647;SDS011;66269;51.466;7.260;2023-03-14T08:26:58;3.40;;;0.80;;
75647;SDS011;66269;51.466;7.260;2023-03-14T08:29:24;1.77;;;0.90;;
75647;SDS011;66269;51.466;7.260;2023-03-14T08:31:49;3.55;;;0.90;;
75647;SDS011;66269;51.466;7.260;2023-03-14T08:34:15;1.15;;;0.70;;
75647;SDS011;66269;51.466;7.260;2023-03-14T08:36:41;2.15;;;0.90;;
75647;SDS011;66269;51.466;7.260;2023-03-14T08:39:07;1.70;;;0.90;;
75647;SDS011;66269;51.466;7.260;2023-03-14T08:41:33;1.83;;;0.90;;
75647;SDS011;66269;51.466;7.260;2023-03-14T08:44:04;1.92;;;0.95;;
75647;SDS011;66269;51.466;7.260;2023-03-14T08:46:31;3.78;;;0.90;;
75647;SDS011;66269;51.466;7.260;2023-03-14T08:48:56;1.45;;;0.90;;
75647;SDS011;66269;51.466;7.260;2023-03-14T08:51:22;1.80;;;1.00;;
75647;SDS011;66269;51.466;7.260;2023-03-14T08:53:47;1.80;;;0.93;;
75647;SDS011;66269;51.466;7.260;2023-03-14T08:56:13;1.98;;;0.82;;
75647;SDS011;66269;51.466;7.260;2023-03-14T08:58:38;1.02;;;0.75;;
75647;SDS011;66269;51.466;7.260;2023-03-14T09:01:08;1.33;;;0.90;;
75647;SDS011;66269;51.466;7.260;2023-03-14T09:03:34;1.85;;;0.90;;
75647;SDS011;66269;51.466;7.260;2023-03-14T09:06:03;1.92;;;1.10;;
75647;SDS011;66269;51.466;7.260;2023-03-14T09:08:30;1.77;;;0.90;;
75647;SDS011;66269;51.466;7.260;2023-03-14T09:10:56;1.13;;;0.73;;
75647;SDS011;66269;51.466;7.260;2023-03-14T09:13:22;1.90;;;1.00;;
75647;SDS011;66269;51.466;7.260;2023-03-14T09:15:51;2.22;;;0.90;;
75647;SDS011;66269;51.466;7.260;2023-03-14T09:18:17;2.83;;;0.90;;
75647;SDS011;66269;51.466;7.260;2023-03-14T09:20:43;1.55;;;0.88;;
75647;SDS011;66269;51.466;7.260;2023-03-14T09:23:08;1.30;;;0.80;;
75647;SDS011;66269;51.466;7.260;2023-03-14T09:25:34;1.92;;;1.10;;
75647;SDS011;66269;51.466;7.260;2023-03-14T09:27:59;2.35;;;1.15;;
75647;SDS011;66269;51.466;7.260;2023-03-14T09:30:25;2.90;;;0.90;;
75647;SDS011;66269;51.466;7.260;2023-03-14T09:32:50;1.73;;;0.90;;
75647;SDS011;66269;51.466;7.260;2023-03-14T09:35:16;0.95;;;0.77;;
75647;SDS011;66269;51.466;7.260;2023-03-14T09:37:42;2.20;;;0.88;;
75647;SDS011;66269;51.466;7.260;2023-03-14T09:40:11;2.28;;;1.08;;
75647;SDS011;66269;51.466;7.260;2023-03-14T09:42:38;2.03;;;0.88;;
75647;SDS011;66269;51.466;7.260;2023-03-14T09:45:07;2.78;;;0.73;;
75647;SDS011;66269;51.466;7.260;2023-03-14T09:47:56;2.28;;;0.63;;
75647;SDS011;66269;51.466;7.260;2023-03-14T09:50:23;0.70;;;0.63;;
75647;SDS011;66269;51.466;7.260;2023-03-14T09:52:51;3.15;;;0.80;;
75647;SDS011;66269;51.466;7.260;2023-03-14T09:55:22;1.65;;;0.77;;
75647;SDS011;66269;51.466;7.260;2023-03-14T09:57:52;2.00;;;0.80;;
75647;SDS011;66269;51.466;7.260;2023-03-14T10:00:23;1.00;;;0.77;;
75647;SDS011;66269;51.466;7.260;2023-03-14T10:02:56;2.92;;;0.90;;
75647;SDS011;66269;51.466;7.260;2023-03-14T10:05:32;2.53;;;1.00;;
75647;SDS011;66269;51.466;7.260;2023-03-14T10:07:58;3.17;;;0.80;;
75647;SDS011;66269;51.466;7.260;2023-03-14T10:10:24;1.10;;;0.88;;
75647;SDS011;66269;51.466;7.260;2023-03-14T10:12:55;1.67;;;0.80;;
75647;SDS011;66269;51.466;7.260;2023-03-14T10:15:29;3.30;;;0.95;;
75647;SDS011;66269;51.466;7.260;2023-03-14T10:17:58;0.90;;;0.70;;
75647;SDS011;66269;51.466;7.260;2023-03-14T10:20:29;1.65;;;1.00;;
75647;SDS011;66269;51.466;7.260;2023-03-14T10:23:06;1.92;;;0.90;;
75647;SDS011;66269;51.466;7.260;2023-03-14T10:25:39;1.65;;;0.95;;
75647;SDS011;66269;51.466;7.260;2023-03-14T10:28:28;1.02;;;0.88;;
75647;SDS011;66269;51.466;7.260;2023-03-14T10:30:57;2.33;;;0.93;;
75647;SDS011;66269;51.466;7.260;2023-03-14T10:33:24;2.28;;;1.00;;
75647;SDS011;66269;51.466;7.260;2023-03-14T10:35:56;3.78;;;1.08;;
75647;SDS011;66269;51.466;7.260;2023-03-14T10:38:26;3.13;;;1.10;;
75647;SDS011;66269;51.466;7.260;2023-03-14T10:40:54;3.42;;;1.10;;
75647;SDS011;66269;51.466;7.260;2023-03-14T10:43:39;3.85;;;1.13;;
75647;SDS011;66269;51.466;7.260;2023-03-14T10:46:07;3.28;;;1.15;;
75647;SDS011;66269;51.466;7.260;2023-03-14T10:48:35;3.03;;;1.33;;
75647;SDS011;66269;51.466;7.260;2023-03-14T10:51:07;2.85;;;1.27;;
75647;SDS011;66269;51.466;7.260;2023-03-14T10:54:00;3.80;;;1.10;;
75647;SDS011;66269;51.466;7.260;2023-03-14T10:56:33;11.45;;;1.20;;
75647;SDS011;66269;51.466;7.260;2023-03-14T10:59:01;2.70;;;0.93;;
75647;SDS011;66269;51.466;7.260;2023-03-14T11:01:34;2.10;;;1.00;;
75647;SDS011;66269;51.466;7.260;2023-03-14T11:04:14;5.40;;;1.13;;
75647;SDS011;66269;51.466;7.260;2023-03-14T11:07:02;1.65;;;0.90;;
75647;SDS011;66269;51.466;7.260;2023-03-14T11:12:59;1.60;;;0.90;;
75647;SDS011;66269;51.466;7.260;2023-03-14T11:15:51;1.08;;;0.90;;
75647;SDS011;66269;51.466;7.260;2023-03-14T11:24:13;2.72;;;0.93;;
75647;SDS011;66269;51.466;7.260;2023-03-14T11:27:00;3.08;;;1.00;;
75647;SDS011;66269;51.466;7.260;2023-03-14T11:29:41;1.58;;;0.75;;
75647;SDS011;66269;51.466;7.260;2023-03-14T11:32:24;1.65;;;0.85;;
75647;SDS011;66269;51.466;7.260;2023-03-14T11:34:54;2.22;;;1.00;;
75647;SDS011;66269;51.466;7.260;2023-03-14T11:40:05;2.03;;;1.00;;
75647;SDS011;66269;51.466;7.260;2023-03-14T11:42:38;1.85;;;0.82;;
75647;SDS011;66269;51.466;7.260;2023-03-14T11:45:13;1.50;;;0.73;;
75647;SDS011;66269;51.466;7.260;2023-03-14T11:47:45;2.78;;;0.85;;
75647;SDS011;66269;51.466;7.260;2023-03-14T11:50:21;0.70;;;0.70;;
75647;SDS011;66269;51.466;7.260;2023-03-14T11:55:36;1.83;;;0.88;;
75647;SDS011;66269;51.466;7.260;2023-03-14T11:58:20;1.05;;;0.80;;
75647;SDS011;66269;51.466;7.260;2023-03-14T12:00:51;1.90;;;1.00;;
75647;SDS011;66269;51.466;7.260;2023-03-14T12:13:38;1.63;;;0.90;;
75647;SDS011;66269;51.466;7.260;2023-03-14T12:16:06;1.38;;;0.80;;
75647;SDS011;66269;51.466;7.260;2023-03-14T12:18:51;1.13;;;0.75;;
75647;SDS011;66269;51.466;7.260;2023-03-14T12:21:18;0.60;;;0.60;;
75647;SDS011;66269;51.466;7.260;2023-03-14T12:26:14;1.45;;;0.70;;
75647;SDS011;66269;51.466;7.260;2023-03-14T12:28:52;2.30;;;0.75;;
75647;SDS011;66269;51.466;7.260;2023-03-14T12:36:51;2.70;;;1.00;;
75647;SDS011;66269;51.466;7.260;2023-03-14T12:45:13;2.00;;;0.90;;
75647;SDS011;66269;51.466;7.260;2023-03-14T12:50:12;0.70;;;0.60;;
75647;SDS011;66269;51.466;7.260;2023-03-14T12:55:35;1.35;;;0.80;;
75647;SDS011;66269;51.466;7.260;2023-03-14T13:01:01;1.30;;;0.80;;
75647;SDS011;66269;51.466;7.260;2023-03-14T13:10:05;1.13;;;0.68;;
75647;SDS011;66269;51.466;7.260;2023-03-14T13:12:28;2.05;;;0.80;;
75647;SDS011;66269;51.466;7.260;2023-03-14T13:15:01;1.30;;;0.70;;
75647;SDS011;66269;51.466;7.260;2023-03-14T13:17:39;2.05;;;0.70;;
75647;SDS011;66269;51.466;7.260;2023-03-14T13:20:14;1.33;;;0.80;;
75647;SDS011;66269;51.466;7.260;2023-03-14T13:22:47;1.23;;;0.60;;
75647;SDS011;66269;51.466;7.260;2023-03-14T13:25:15;2.33;;;0.80;;
75647;SDS011;66269;51.466;7.260;2023-03-14T13:27:42;1.40;;;0.57;;
75647;SDS011;66269;51.466;7.260;2023-03-14T13:30:24;0.95;;;0.63;;
75647;SDS011;66269;51.466;7.260;2023-03-14T13:32:52;1.40;;;0.70;;
75647;SDS011;66269;51.466;7.260;2023-03-14T13:35:24;1.98;;;0.77;;
75647;SDS011;66269;51.466;7.260;2023-03-14T13:37:52;2.55;;;0.80;;
75647;SDS011;66269;51.466;7.260;2023-03-14T13:40:29;6.20;;;0.80;;
75647;SDS011;66269;51.466;7.260;2023-03-14T13:43:11;1.13;;;0.80;;
75647;SDS011;66269;51.466;7.260;2023-03-14T13:48:17;1.88;;;0.60;;
75647;SDS011;66269;51.466;7.260;2023-03-14T13:50:53;1.70;;;0.80;;
75647;SDS011;66269;51.466;7.260;2023-03-14T13:53:30;3.22;;;0.90;;
75647;SDS011;66269;51.466;7.260;2023-03-14T13:55:56;2.72;;;0.90;;
75647;SDS011;66269;51.466;7.260;2023-03-14T13:58:23;2.15;;;0.70;;
75647;SDS011;66269;51.466;7.260;2023-03-14T14:00:54;0.77;;;0.47;;
75647;SDS011;66269;51.466;7.260;2023-03-14T14:03:32;2.13;;;0.68;;
75647;SDS011;66269;51.466;7.260;2023-03-14T14:06:01;2.00;;;0.90;;
75647;SDS011;66269;51.466;7.260;2023-03-14T14:08:27;1.67;;;0.88;;
75647;SDS011;66269;51.466;7.260;2023-03-14T14:10:55;2.92;;;0.73;;
75647;SDS011;66269;51.466;7.260;2023-03-14T14:13:25;0.95;;;0.73;;
75647;SDS011;66269;51.466;7.260;2023-03-14T14:15:53;3.35;;;0.90;;
75647;SDS011;66269;51.466;7.260;2023-03-14T14:18:20;1.48;;;0.65;;
75647;SDS011;66269;51.466;7.260;2023-03-14T14:20:49;2.72;;;1.00;;
75647;SDS011;66269;51.466;7.260;2023-03-14T14:23:19;3.03;;;0.82;;
75647;SDS011;66269;51.466;7.260;2023-03-14T14:25:54;1.92;;;0.95;;
75647;SDS011;66269;51.466;7.260;2023-03-14T14:28:30;3.00;;;1.10;;
75647;SDS011;66269;51.466;7.260;2023-03-14T14:31:05;2.63;;;1.02;;
75647;SDS011;66269;51.466;7.260;2023-03-14T14:39:00;2.80;;;0.90;;
75647;SDS011;66269;51.466;7.260;2023-03-14T14:41:31;3.22;;;1.00;;
75647;SDS011;66269;51.466;7.260;2023-03-14T14:44:04;2.67;;;0.90;;
75647;SDS011;66269;51.466;7.260;2023-03-14T14:46:30;5.78;;;1.23;;
75647;SDS011;66269;51.466;7.260;2023-03-14T14:48:58;2.53;;;1.00;;
75647;SDS011;66269;51.466;7.260;2023-03-14T14:51:34;2.25;;;0.90;;
75647;SDS011;66269;51.466;7.260;2023-03-14T14:54:10;2.00;;;0.85;;
75647;SDS011;66269;51.466;7.260;2023-03-14T14:56:37;2.70;;;0.95;;
75647;SDS011;66269;51.466;7.260;2023-03-14T14:59:03;2.78;;;1.00;;
75647;SDS011;66269;51.466;7.260;2023-03-14T15:01:32;3.92;;;0.95;;
75647;SDS011;66269;51.466;7.260;2023-03-14T15:03:59;1.95;;;0.90;;
75647;SDS011;66269;51.466;7.260;2023-03-14T15:06:26;3.17;;;0.90;;
75647;SDS011;66269;51.466;7.260;2023-03-14T15:08:53;2.08;;;0.75;;
75647;SDS011;66269;51.466;7.260;2023-03-14T15:11:21;2.55;;;0.90;;
75647;SDS011;66269;51.466;7.260;2023-03-14T15:13:48;3.63;;;0.85;;
75647;SDS011;66269;51.466;7.260;2023-03-14T15:16:17;3.10;;;0.90;;
75647;SDS011;66269;51.466;7.260;2023-03-14T15:18:46;3.65;;;0.80;;
75647;SDS011;66269;51.466;7.260;2023-03-14T15:21:22;1.98;;;0.80;;
75647;SDS011;66269;51.466;7.260;2023-03-14T15:23:49;1.48;;;0.70;;
75647;SDS011;66269;51.466;7.260;2023-03-14T15:26:15;2.97;;;0.80;;
75647;SDS011;66269;51.466;7.260;2023-03-14T15:28:43;1.45;;;0.75;;
75647;SDS011;66269;51.466;7.260;2023-03-14T15:31:11;2.75;;;0.98;;
75647;SDS011;66269;51.466;7.260;2023-03-14T15:33:37;2.10;;;1.00;;
75647;SDS011;66269;51.466;7.260;2023-03-14T15:36:03;2.97;;;0.85;;
75647;SDS011;66269;51.466;7.260;2023-03-14T15:38:31;3.13;;;1.00;;
75647;SDS011;66269;51.466;7.260;2023-03-14T15:40:57;4.13;;;0.93;;
75647;SDS011;66269;51.466;7.260;2023-03-14T15:43:22;3.53;;;1.10;;
75647;SDS011;66269;51.466;7.260;2023-03-14T15:45:48;2.33;;;1.05;;
75647;SDS011;66269;51.466;7.260;2023-03-14T15:48:16;1.67;;;0.70;;
75647;SDS011;66269;51.466;7.260;2023-03-14T15:50:43;3.45;;;1.25;;
75647;SDS011;66269;51.466;7.260;2023-03-14T15:53:09;1.60;;;0.68;;
75647;SDS011;66269;51.466;7.260;2023-03-14T15:55:35;2.28;;;0.90;;
75647;SDS011;66269;51.466;7.260;2023-03-14T15:58:01;3.53;;;1.15;;
75647;SDS011;66269;51.466;7.260;2023-03-14T16:00:28;2.55;;;0.90;;
75647;SDS011;66269;51.466;7.260;2023-03-14T16:02:54;3.83;;;1.10;;
75647;SDS011;66269;51.466;7.260;2023-03-14T16:05:19;2.05;;;0.82;;